createdAt,value
2023-01-23T00:02:11.704Z,2.48
2023-01-23T00:04:44.412Z,2.79
2023-01-23T00:07:12.584Z,2.91
2023-01-23T00:09:40.351Z,3.04
2023-01-23T00:12:10.870Z,2.40
2023-01-23T00:14:40.464Z,2.88
2023-01-23T00:17:08.376Z,2.95
2023-01-23T00:19:47.896Z,2.84
2023-01-23T00:22:16.028Z,3.26
2023-01-23T00:24:43.933Z,3.33
2023-01-23T00:27:11.770Z,3.27
2023-01-23T00:29:42.297Z,3.39
2023-01-23T00:32:10.651Z,3.65
2023-01-23T00:34:40.258Z,3.53
2023-01-23T00:37:08.587Z,2.55
2023-01-23T00:39:38.811Z,2.57
2023-01-23T00:42:08.627Z,3.44
2023-01-23T00:44:37.695Z,3.39
2023-01-23T00:47:09.013Z,3.14
2023-01-23T00:49:43.435Z,2.95
2023-01-23T00:52:11.382Z,2.95
2023-01-23T00:54:40.931Z,2.59
2023-01-23T00:57:15.426Z,3.01
2023-01-23T00:59:43.207Z,3.26
2023-01-23T01:02:13.419Z,3.14
2023-01-23T01:04:44.155Z,3.34
2023-01-23T01:07:12.096Z,3.37
2023-01-23T01:09:41.062Z,3.34
2023-01-23T01:12:16.520Z,3.25
2023-01-23T01:14:46.819Z,3.45
2023-01-23T01:17:14.701Z,3.27
2023-01-23T01:19:44.327Z,3.30
2023-01-23T01:22:12.092Z,3.43
2023-01-23T01:24:42.960Z,3.26
2023-01-23T01:27:10.839Z,3.70
2023-01-23T01:29:39.140Z,3.60
2023-01-23T01:32:08.620Z,3.40
2023-01-23T01:34:39.335Z,3.43
2023-01-23T01:37:12.220Z,3.63
2023-01-23T01:39:40.180Z,3.65
2023-01-23T01:42:10.455Z,3.22
2023-01-23T01:44:56.552Z,3.12
2023-01-23T01:47:26.515Z,3.07
2023-01-23T01:49:58.504Z,3.02
2023-01-23T01:52:28.364Z,3.03
2023-01-23T01:54:59.817Z,3.17
2023-01-23T01:57:31.027Z,3.03
2023-01-23T02:00:05.318Z,2.81
2023-01-23T02:02:39.243Z,3.09
2023-01-23T02:05:10.479Z,3.11
2023-01-23T02:07:50.434Z,2.86
2023-01-23T02:10:18.783Z,2.88
2023-01-23T02:12:48.081Z,3.13
2023-01-23T02:15:19.678Z,3.11
2023-01-23T02:17:49.891Z,3.06
2023-01-23T02:20:23.783Z,2.99
2023-01-23T02:23:03.039Z,2.95
2023-01-23T02:25:42.010Z,3.18
2023-01-23T02:28:14.974Z,3.42
2023-01-23T02:30:47.098Z,2.99
2023-01-23T02:33:46.486Z,3.36
2023-01-23T02:36:17.787Z,3.11
2023-01-23T02:38:58.675Z,2.93
2023-01-23T02:41:30.775Z,3.13
2023-01-23T02:44:06.633Z,2.93
2023-01-23T02:46:36.881Z,2.78
2023-01-23T02:49:05.020Z,3.03
2023-01-23T02:51:34.999Z,2.70
2023-01-23T02:54:13.036Z,2.93
2023-01-23T02:56:42.140Z,3.03
2023-01-23T02:59:29.129Z,3.15
2023-01-23T03:01:57.566Z,3.36
2023-01-23T03:04:25.833Z,3.50
2023-01-23T03:06:56.474Z,3.29
2023-01-23T03:09:31.856Z,3.18
2023-01-23T03:12:02.935Z,3.23
2023-01-23T03:14:37.515Z,3.09
2023-01-23T03:17:11.091Z,3.02
2023-01-23T03:19:39.426Z,2.75
2023-01-23T03:22:09.416Z,3.07
2023-01-23T03:24:40.626Z,2.88
2023-01-23T03:27:13.989Z,2.80
2023-01-23T03:30:03.190Z,2.95
2023-01-23T03:32:32.099Z,2.95
2023-01-23T03:35:09.434Z,2.77
2023-01-23T03:37:39.956Z,2.87
2023-01-23T03:40:26.681Z,3.02
2023-01-23T03:42:56.921Z,2.99
2023-01-23T03:45:26.351Z,3.11
2023-01-23T03:47:59.789Z,3.02
2023-01-23T03:50:30.158Z,2.90
2023-01-23T03:53:00.571Z,3.00
2023-01-23T03:55:31.759Z,2.95
2023-01-23T03:57:59.799Z,2.43
2023-01-23T04:00:32.371Z,2.95
2023-01-23T04:03:00.676Z,2.62
2023-01-23T04:05:30.571Z,2.64
2023-01-23T04:08:01.389Z,2.74
2023-01-23T04:10:29.320Z,2.80
2023-01-23T04:12:57.337Z,2.66
2023-01-23T04:15:25.364Z,2.75
2023-01-23T04:17:57.542Z,2.82
2023-01-23T04:20:45.226Z,2.92
2023-01-23T04:23:13.133Z,2.76
2023-01-23T04:25:41.042Z,3.10
2023-01-23T04:28:09.175Z,3.16
2023-01-23T04:30:39.147Z,3.35
2023-01-23T04:33:09.069Z,3.06
2023-01-23T04:35:37.375Z,3.07
2023-01-23T04:38:08.431Z,3.07
2023-01-23T04:40:40.333Z,3.09
2023-01-23T04:43:08.280Z,3.13
2023-01-23T04:45:38.887Z,2.95
2023-01-23T04:48:12.138Z,2.91
2023-01-23T04:50:40.551Z,3.05
2023-01-23T04:53:09.094Z,2.72
2023-01-23T04:55:37.820Z,2.19
2023-01-23T04:58:23.226Z,2.63
2023-01-23T05:00:52.485Z,2.81
2023-01-23T05:03:26.861Z,2.77
2023-01-23T05:05:57.258Z,2.52
2023-01-23T05:08:25.292Z,2.75
2023-01-23T05:10:58.063Z,2.83
2023-01-23T05:13:26.787Z,2.95
2023-01-23T05:15:54.757Z,3.11
2023-01-23T05:18:24.031Z,2.81
2023-01-23T05:20:54.907Z,2.83
2023-01-23T05:23:26.951Z,2.93
2023-01-23T05:25:57.628Z,2.78
2023-01-23T05:28:25.574Z,2.62
2023-01-23T05:30:53.572Z,1.58
2023-01-23T05:33:34.596Z,3.01
2023-01-23T05:36:02.836Z,2.96
2023-01-23T05:38:33.912Z,2.95
2023-01-23T05:41:06.690Z,3.05
2023-01-23T05:43:37.580Z,3.01
2023-01-23T05:46:06.100Z,3.10
2023-01-23T05:48:37.151Z,3.21
2023-01-23T05:51:09.187Z,3.24
2023-01-23T05:53:37.040Z,3.05
2023-01-23T05:56:08.103Z,3.15
2023-01-23T05:58:38.391Z,3.20
2023-01-23T06:01:10.589Z,3.03
2023-01-23T06:03:40.010Z,3.07
2023-01-23T06:06:11.534Z,3.09
2023-01-23T06:08:39.622Z,2.99
2023-01-23T06:11:07.529Z,3.18
2023-01-23T06:13:44.416Z,3.24
2023-01-23T06:16:12.460Z,3.32
2023-01-23T06:18:41.907Z,3.28
2023-01-23T06:21:10.065Z,3.33
2023-01-23T06:23:40.610Z,3.27
2023-01-23T06:26:11.514Z,3.09
2023-01-23T06:28:43.753Z,2.58
2023-01-23T06:31:17.472Z,2.99
2023-01-23T06:33:59.306Z,2.60
2023-01-23T06:36:27.798Z,2.86
2023-01-23T06:38:56.273Z,2.77
2023-01-23T06:41:25.249Z,3.00
2023-01-23T06:43:53.985Z,3.18
2023-01-23T06:46:24.513Z,3.28
2023-01-23T06:48:55.441Z,2.81
2023-01-23T06:51:23.835Z,3.13
2023-01-23T06:53:51.734Z,3.21
2023-01-23T06:56:19.858Z,2.86
2023-01-23T06:58:53.600Z,2.56
2023-01-23T07:01:21.629Z,2.64
2023-01-23T07:03:52.975Z,2.63
2023-01-23T07:06:24.502Z,2.36
2023-01-23T07:08:53.732Z,2.34
2023-01-23T07:11:28.596Z,2.81
2023-01-23T07:13:56.844Z,2.35
2023-01-23T07:16:27.018Z,2.50
2023-01-23T07:18:55.124Z,2.52
2023-01-23T07:21:29.500Z,2.43
2023-01-23T07:24:00.694Z,2.46
2023-01-23T07:26:31.399Z,2.40
2023-01-23T07:28:59.999Z,2.21
2023-01-23T07:31:29.351Z,1.64
2023-01-23T07:34:01.752Z,2.33
2023-01-23T07:36:34.730Z,2.39
2023-01-23T07:39:05.697Z,2.29
2023-01-23T07:41:43.090Z,2.39
2023-01-23T07:44:24.535Z,2.39
2023-01-23T07:46:55.670Z,2.34
2023-01-23T07:49:28.528Z,2.50
2023-01-23T07:51:58.339Z,2.53
2023-01-23T07:54:29.110Z,2.65
2023-01-23T07:56:59.013Z,2.80
2023-01-23T07:59:27.084Z,2.64
2023-01-23T08:01:58.962Z,2.49
2023-01-23T08:04:36.132Z,2.64
2023-01-23T08:07:05.907Z,2.19
2023-01-23T08:09:45.474Z,2.83
2023-01-23T08:12:17.229Z,2.63
2023-01-23T08:14:51.633Z,2.02
2023-01-23T08:17:22.071Z,2.41
2023-01-23T08:19:52.133Z,2.56
2023-01-23T08:22:21.816Z,2.80
2023-01-23T08:24:50.877Z,3.06
2023-01-23T08:27:21.636Z,2.93
2023-01-23T08:29:49.806Z,2.90
2023-01-23T08:32:25.589Z,3.06
2023-01-23T08:34:55.475Z,2.97
2023-01-23T08:37:26.328Z,2.84
2023-01-23T08:39:55.723Z,2.53
2023-01-23T08:42:24.357Z,3.27
2023-01-23T08:44:56.944Z,3.32
2023-01-23T08:47:24.945Z,3.44
2023-01-23T08:49:53.075Z,3.15
2023-01-23T08:52:21.345Z,3.12
2023-01-23T08:54:51.330Z,3.00
2023-01-23T08:57:19.445Z,2.98
2023-01-23T08:59:52.159Z,3.28
2023-01-23T09:02:24.760Z,3.52
2023-01-23T09:04:56.943Z,2.84
2023-01-23T09:07:31.478Z,3.11
2023-01-23T09:10:02.504Z,3.06
2023-01-23T09:12:31.539Z,3.34
2023-01-23T09:15:00.841Z,3.14
2023-01-23T09:17:29.568Z,3.41
2023-01-23T09:20:03.604Z,3.48
2023-01-23T09:22:32.475Z,3.21
2023-01-23T09:25:04.536Z,3.52
2023-01-23T09:27:34.397Z,2.31
2023-01-23T09:30:02.528Z,3.29
2023-01-23T09:32:33.445Z,3.04
2023-01-23T09:35:03.097Z,3.50
2023-01-23T09:37:58.431Z,3.60
2023-01-23T09:40:30.326Z,3.66
2023-01-23T09:43:00.749Z,3.78
2023-01-23T09:45:39.811Z,3.72
2023-01-23T09:48:18.316Z,3.52
2023-01-23T09:50:57.896Z,3.49
2023-01-23T09:53:36.302Z,3.25
2023-01-23T09:56:23.154Z,3.18
2023-01-23T09:59:06.593Z,2.95
2023-01-23T10:01:34.770Z,3.15
2023-01-23T10:04:03.655Z,3.44
2023-01-23T10:06:37.136Z,3.22
2023-01-23T10:09:26.237Z,3.39
2023-01-23T10:12:01.818Z,2.91
2023-01-23T10:14:54.088Z,2.62
2023-01-23T10:17:29.043Z,2.67
2023-01-23T10:20:12.951Z,2.71
2023-01-23T10:22:47.403Z,2.86
2023-01-23T10:25:18.746Z,2.57
2023-01-23T10:27:52.654Z,2.59
2023-01-23T10:30:28.503Z,2.63
2023-01-23T10:32:59.672Z,3.14
2023-01-23T10:35:41.665Z,2.95
2023-01-23T10:38:35.508Z,2.89
2023-01-23T10:41:23.118Z,2.71
2023-01-23T10:43:57.094Z,2.99
2023-01-23T10:46:30.771Z,2.61
2023-01-23T10:49:01.502Z,3.11
2023-01-23T10:51:36.364Z,3.18
2023-01-23T10:54:22.654Z,3.07
2023-01-23T10:57:02.180Z,3.06
2023-01-23T10:59:41.558Z,2.81
2023-01-23T11:02:24.236Z,3.09
2023-01-23T11:04:54.391Z,3.00
2023-01-23T11:07:25.147Z,3.22
2023-01-23T11:09:59.487Z,2.84
2023-01-23T11:12:28.905Z,2.73
2023-01-23T11:15:24.501Z,2.09
2023-01-23T11:17:53.641Z,2.99
2023-01-23T11:20:30.179Z,3.45
2023-01-23T11:23:06.642Z,3.57
2023-01-23T11:25:38.172Z,3.64
2023-01-23T11:28:26.064Z,3.03
2023-01-23T11:31:12.993Z,3.77
2023-01-23T11:33:53.804Z,3.74
2023-01-23T11:36:36.140Z,4.01
2023-01-23T11:39:15.271Z,3.43
2023-01-23T11:41:46.666Z,3.52
2023-01-23T11:44:19.342Z,3.54
2023-01-23T11:50:17.991Z,3.92
2023-01-23T11:52:55.173Z,3.88
2023-01-23T11:55:52.852Z,4.02
2023-01-23T11:58:49.050Z,3.43
2023-01-23T12:01:22.675Z,3.47
2023-01-23T12:04:20.479Z,4.23
2023-01-23T12:07:21.088Z,3.97
2023-01-23T12:10:04.693Z,3.63
2023-01-23T12:12:55.695Z,3.72
2023-01-23T12:15:34.181Z,4.09
2023-01-23T12:18:10.476Z,3.44
2023-01-23T12:20:44.558Z,3.28
2023-01-23T12:23:22.613Z,3.59
2023-01-23T12:26:01.600Z,3.10
2023-01-23T12:28:56.662Z,3.56
2023-01-23T12:31:47.828Z,3.96
2023-01-23T12:34:28.867Z,3.44
2023-01-23T12:37:22.209Z,3.26
2023-01-23T12:40:06.517Z,3.67
2023-01-23T12:42:42.467Z,4.40
2023-01-23T12:45:19.024Z,3.99
2023-01-23T12:48:00.178Z,4.04
2023-01-23T12:50:37.080Z,3.74
2023-01-23T12:53:08.645Z,3.53
2023-01-23T12:55:40.059Z,3.78
2023-01-23T12:58:15.598Z,3.86
2023-01-23T13:00:57.535Z,4.15
2023-01-23T13:03:45.899Z,4.50
2023-01-23T13:06:37.468Z,4.11
2023-01-23T13:09:18.345Z,4.15
2023-01-23T13:11:58.828Z,3.64
2023-01-23T13:15:13.957Z,3.95
2023-01-23T13:17:43.879Z,4.14
2023-01-23T13:20:41.645Z,3.95
2023-01-23T13:23:32.745Z,4.30
2023-01-23T13:26:36.187Z,4.31
2023-01-23T13:29:08.467Z,4.15
2023-01-23T13:31:48.055Z,4.14
2023-01-23T13:34:41.800Z,4.06
2023-01-23T13:37:55.385Z,4.06
2023-01-23T13:40:24.875Z,3.67
2023-01-23T13:42:53.744Z,3.66
2023-01-23T13:45:39.458Z,4.05
2023-01-23T14:20:42.819Z,4.65
2023-01-23T14:23:32.169Z,4.83
2023-01-23T14:26:04.923Z,4.09
2023-01-23T14:28:38.050Z,4.34
2023-01-23T14:31:26.573Z,4.20
2023-01-23T14:34:09.889Z,4.58
2023-01-23T14:36:41.949Z,4.52
2023-01-23T14:39:19.775Z,4.80
2023-01-23T14:41:51.102Z,4.72
2023-01-23T14:44:26.518Z,4.38
2023-01-23T14:46:57.563Z,4.33
2023-01-23T14:49:28.108Z,4.10
2023-01-23T14:52:03.711Z,3.93
2023-01-23T14:54:42.033Z,4.03
2023-01-23T14:57:13.146Z,3.94
2023-01-23T14:59:46.212Z,4.20
2023-01-23T15:02:28.334Z,4.08
2023-01-23T15:05:20.272Z,3.73
2023-01-23T15:07:54.445Z,4.16
2023-01-23T15:10:24.409Z,3.99
2023-01-23T15:13:03.975Z,3.77
2023-01-23T15:15:36.264Z,3.97
2023-01-23T15:18:16.439Z,3.71
2023-01-23T15:21:04.463Z,4.12
2023-01-23T15:23:41.164Z,3.95
2023-01-23T15:26:31.299Z,4.01
2023-01-23T15:29:03.862Z,3.90
2023-01-23T15:31:34.761Z,4.15
2023-01-23T15:34:20.163Z,4.11
2023-01-23T15:36:48.761Z,4.02
2023-01-23T15:39:20.148Z,4.40
2023-01-23T15:41:51.196Z,4.22
2023-01-23T15:44:22.228Z,4.24
2023-01-23T15:46:54.155Z,4.03
2023-01-23T15:49:26.120Z,3.43
2023-01-23T15:52:00.425Z,3.46
2023-01-23T15:54:33.023Z,3.49
2023-01-23T15:57:08.816Z,3.41
2023-01-23T15:59:41.441Z,3.62
2023-01-23T16:02:29.543Z,3.35
2023-01-23T16:05:01.875Z,3.37
2023-01-23T16:07:34.817Z,3.20
2023-01-23T16:10:13.571Z,3.19
2023-01-23T16:12:42.625Z,3.49
2023-01-23T16:15:16.715Z,3.35
2023-01-23T16:17:47.240Z,3.32
2023-01-23T16:20:16.145Z,3.72
2023-01-23T16:22:44.244Z,3.17
2023-01-23T16:25:43.023Z,3.40
2023-01-23T16:28:17.975Z,3.41
2023-01-23T16:30:50.962Z,3.64
2023-01-23T16:33:24.038Z,3.53
2023-01-23T16:35:53.514Z,3.40
2023-01-23T16:38:22.646Z,3.87
2023-01-23T16:40:53.215Z,3.42
2023-01-23T16:43:22.840Z,3.63
2023-01-23T16:45:56.066Z,1.85
2023-01-23T16:48:28.665Z,3.49
2023-01-23T16:51:01.665Z,3.47
2023-01-23T16:53:43.422Z,4.01
2023-01-23T16:56:23.482Z,3.89
2023-01-23T16:58:52.119Z,3.81
2023-01-23T17:01:26.955Z,3.67
2023-01-23T17:03:57.332Z,3.81
2023-01-23T17:06:28.109Z,3.51
2023-01-23T17:08:58.144Z,3.58
2023-01-23T17:11:36.776Z,3.86
2023-01-23T17:14:11.071Z,4.01
2023-01-23T17:16:40.491Z,3.85
2023-01-23T17:19:15.008Z,4.33
2023-01-23T17:21:43.785Z,4.29
2023-01-23T17:24:16.273Z,4.32
2023-01-23T17:26:51.606Z,4.19
2023-01-23T17:29:21.419Z,4.02
2023-01-23T17:31:51.770Z,4.11
2023-01-23T17:34:22.892Z,3.92
2023-01-23T17:36:52.992Z,4.13
2023-01-23T17:39:22.490Z,4.17
2023-01-23T17:41:51.507Z,4.26
2023-01-23T17:44:23.779Z,4.13
2023-01-23T17:46:54.765Z,3.88
2023-01-23T17:49:33.634Z,3.99
2023-01-23T17:52:03.237Z,3.79
2023-01-23T17:54:33.056Z,3.84
2023-01-23T17:57:01.686Z,3.97
2023-01-23T17:59:29.623Z,4.03
2023-01-23T18:02:21.745Z,4.07
2023-01-23T18:04:49.800Z,3.99
2023-01-23T18:07:18.305Z,4.09
2023-01-23T18:09:46.501Z,4.07
2023-01-23T18:12:23.533Z,4.16
2023-01-23T18:15:04.336Z,3.87
2023-01-23T18:17:38.827Z,3.67
2023-01-23T18:20:17.877Z,4.01
2023-01-23T18:22:46.526Z,3.88
2023-01-23T18:25:16.012Z,3.96
2023-01-23T18:27:47.307Z,4.12
2023-01-23T18:30:31.522Z,3.67
2023-01-23T18:33:20.525Z,3.45
2023-01-23T18:36:10.837Z,3.90
2023-01-23T18:38:45.324Z,3.97
2023-01-23T18:41:21.314Z,3.60
2023-01-23T18:43:52.312Z,3.75
2023-01-23T18:46:25.259Z,4.07
2023-01-23T18:48:55.787Z,3.89
2023-01-23T18:51:39.257Z,3.72
2023-01-23T18:54:20.037Z,3.62
2023-01-23T18:56:57.914Z,3.74
2023-01-23T18:59:33.467Z,3.39
2023-01-23T19:02:15.461Z,3.31
2023-01-23T19:04:48.572Z,3.60
2023-01-23T19:07:19.065Z,2.84
2023-01-23T19:09:48.894Z,3.80
2023-01-23T19:12:25.714Z,3.61
2023-01-23T19:15:21.302Z,3.93
2023-01-23T19:17:51.074Z,3.98
2023-01-23T19:20:34.891Z,4.19
2023-01-23T19:23:12.313Z,4.08
2023-01-23T19:25:40.431Z,4.27
2023-01-23T19:28:13.224Z,4.23
2023-01-23T19:30:42.419Z,4.16
2023-01-23T19:33:13.705Z,4.26
2023-01-23T19:35:44.072Z,4.19
2023-01-23T19:38:11.944Z,4.29
2023-01-23T19:40:42.956Z,4.26
2023-01-23T19:43:19.572Z,4.33
2023-01-23T19:45:48.032Z,4.35
2023-01-23T19:48:20.202Z,3.95
2023-01-23T19:50:56.069Z,4.19
2023-01-23T19:53:24.122Z,4.37
2023-01-23T19:55:52.228Z,4.25
2023-01-23T19:58:20.150Z,4.22
2023-01-23T20:00:51.211Z,4.27
2023-01-23T20:03:28.857Z,3.99
2023-01-23T20:06:00.152Z,3.47
2023-01-23T20:08:28.404Z,3.97
2023-01-23T20:10:56.667Z,3.92
2023-01-23T20:13:27.675Z,3.92
2023-01-23T20:15:58.265Z,3.94
2023-01-23T20:18:26.856Z,3.98
2023-01-23T20:21:04.237Z,3.98
2023-01-23T20:23:34.892Z,3.65
2023-01-23T20:26:09.288Z,3.74
2023-01-23T20:28:37.469Z,3.91
2023-01-23T20:31:08.811Z,3.76
2023-01-23T20:33:37.251Z,3.41
2023-01-23T20:38:59.974Z,3.44
2023-01-23T20:41:31.854Z,4.32
2023-01-23T20:44:01.015Z,3.42
2023-01-23T20:46:31.148Z,4.00
2023-01-23T20:49:02.730Z,3.98
2023-01-23T20:51:32.056Z,3.66
2023-01-23T20:54:00.170Z,3.94
2023-01-23T20:56:30.774Z,3.96
2023-01-23T20:59:16.953Z,4.08
2023-01-23T21:02:03.096Z,3.53
2023-01-23T21:04:33.058Z,3.47
2023-01-23T21:07:04.410Z,3.73
2023-01-23T21:09:35.586Z,3.86
2023-01-23T21:12:03.543Z,3.99
2023-01-23T21:14:32.775Z,3.82
2023-01-23T21:17:00.736Z,3.91
2023-01-23T21:19:28.786Z,3.70
2023-01-23T21:21:56.617Z,4.05
2023-01-23T21:24:31.407Z,4.16
2023-01-23T21:27:03.325Z,3.98
2023-01-23T21:29:33.176Z,3.89
2023-01-23T21:32:01.533Z,3.84
2023-01-23T21:34:30.180Z,4.34
2023-01-23T21:37:01.116Z,3.85
2023-01-23T21:39:33.262Z,3.78
2023-01-23T21:42:01.511Z,3.61
2023-01-23T21:44:29.583Z,3.83
2023-01-23T21:46:59.815Z,3.88
2023-01-23T21:49:27.993Z,3.64
2023-01-23T21:52:00.865Z,3.96
2023-01-23T21:54:33.959Z,3.68
2023-01-23T21:57:01.859Z,3.49
2023-01-23T21:59:32.181Z,4.00
2023-01-23T22:02:01.959Z,4.07
2023-01-23T22:04:32.200Z,3.62
2023-01-23T22:07:04.806Z,3.85
2023-01-23T22:09:34.147Z,3.86
2023-01-23T22:12:04.530Z,4.00
2023-01-23T22:14:35.162Z,4.21
2023-01-23T22:17:03.029Z,4.33
2023-01-23T22:19:33.844Z,4.50
2023-01-23T22:22:01.606Z,4.39
2023-01-23T22:24:32.473Z,4.04
2023-01-23T22:27:06.711Z,4.08
2023-01-23T22:29:34.730Z,3.87
2023-01-23T22:32:05.636Z,4.10
2023-01-23T22:34:33.588Z,4.26
2023-01-23T22:37:03.330Z,4.34
2023-01-23T22:39:31.434Z,4.23
2023-01-23T22:42:09.685Z,4.41
2023-01-23T22:44:41.719Z,4.52
2023-01-23T22:47:09.670Z,4.70
2023-01-23T22:49:40.231Z,4.52
2023-01-23T22:52:09.273Z,4.55
2023-01-23T22:54:42.047Z,4.17
2023-01-23T22:57:10.113Z,4.65
2023-01-23T22:59:41.884Z,2.59
2023-01-23T23:02:09.716Z,3.98
2023-01-23T23:04:40.657Z,4.23
2023-01-23T23:07:12.684Z,4.07
2023-01-23T23:09:42.226Z,3.95
2023-01-23T23:12:10.509Z,3.93
2023-01-23T23:14:40.666Z,3.79
2023-01-23T23:17:08.783Z,3.92
2023-01-23T23:19:36.815Z,3.88
2023-01-23T23:22:13.128Z,3.98
2023-01-23T23:24:43.981Z,3.51
2023-01-23T23:27:14.604Z,3.69
2023-01-23T23:29:46.614Z,3.81
2023-01-23T23:32:15.893Z,3.98
2023-01-23T23:34:45.079Z,3.84
2023-01-23T23:37:16.495Z,4.12
2023-01-23T23:39:50.106Z,3.96
2023-01-23T23:42:19.903Z,4.23
2023-01-23T23:44:51.008Z,4.10
2023-01-23T23:47:18.747Z,3.94
2023-01-23T23:49:55.434Z,3.95
2023-01-23T23:52:27.985Z,3.94
2023-01-23T23:54:56.701Z,3.54
2023-01-23T23:57:29.829Z,3.88
